Tuesday, July 7, 2015, 8:23 PM EDT

KOFP, Hanover County Municipal

Location: Ashland, VA, United States Lat: 37.7
Local Time: 8:23 PM EDT ( 0:23 GMT) Lon: -77.433
Time Zone: US/Eastern Elev: 203 ft

Show me the last for .
Show Decoded

2015-07-07 19:54 METAR KOFP 072354Z AUTO 18006KT 6SM HZ CLR 28/21 A3003 RMK AO2 SLP166 T02780211
                 10317 20278 56004 =
2015-07-07 18:54 METAR KOFP 072254Z AUTO 21009KT 6SM HZ CLR 31/20 A3004 RMK AO2 SLP168 T03060200
                 =
2015-07-07 17:54 METAR KOFP 072154Z AUTO 22011KT 6SM HZ CLR 31/19 A3003 RMK AO2 SLP166 T03110194
                 =
2015-07-07 16:54 METAR KOFP 072054Z AUTO 22007G19KT 7SM CLR 32/19 A3004 RMK AO2 SLP170 T03170189
                 56013 =
2015-07-07 15:54 METAR KOFP 071954Z AUTO 25009KT 7SM CLR 32/19 A3005 RMK AO2 SLP174 T03170194 =
2015-07-07 14:54 METAR KOFP 071854Z AUTO 21009KT 6SM HZ CLR 31/20 A3006 RMK AO2 SLP178 T03110200
                 =
2015-07-07 13:54 METAR KOFP 071754Z AUTO 22006G16KT 7SM FEW046 31/21 A3008 RMK AO2 SLP182
                 T03110206 10311 20233 58007 =
2015-07-07 12:54 METAR KOFP 071654Z AUTO 24008KT 7SM CLR 30/19 A3009 RMK AO2 SLP185 T03000194 =
2015-07-07 11:54 METAR KOFP 071554Z AUTO 27005KT 7SM CLR 29/21 A3009 RMK AO2 SLP188 T02940206
                 TSNO =
2015-07-07 10:54 METAR KOFP 071454Z AUTO 23008KT 8SM CLR 28/21 A3010 RMK AO2 SLP190 T02830211
                 58000 =
2015-07-07 09:54 METAR KOFP 071354Z AUTO 23005KT 8SM CLR 27/21 A3010 RMK AO2 SLP191 T02670206 =
2015-07-07 08:54 METAR KOFP 071254Z AUTO 26006KT 8SM CLR 24/21 A3011 RMK AO2 SLP193 T02440211 =
2015-07-07 07:54 METAR KOFP 071154Z AUTO 24005KT 7SM CLR 23/21 A3010 RMK AO2 SLP191 70055
                 T02330211 10233 20211 53014 =
2015-07-07 06:54 METAR KOFP 071054Z AUTO 20004KT 5SM BR CLR 22/21 A3009 RMK AO2 SLP186 T02220211
                 =
2015-07-07 05:54 METAR KOFP 070954Z AUTO 20004KT 6SM BR CLR 22/21 A3007 RMK AO2 SLP181 T02170211
                 =
2015-07-07 03:54 METAR KOFP 070754Z AUTO 19004KT 4SM BR FEW003 22/22 A3006 RMK AO2 SLP177
                 T02220217 =
2015-07-07 03:52 METAR KOFP 070752Z AUTO 18004KT 4SM BR FEW003 22/22 A3006 RMK AO2 =
2015-07-07 03:45 METAR KOFP 070745Z AUTO 16004KT 2SM BR FEW003 22/22 A3006 RMK AO2 T02220217 =
2015-07-07 03:41 METAR KOFP 070741Z AUTO VRB04KT 1SM BR FEW002 FEW060 22/22 A3006 RMK AO2
                 T02220217 =
2015-07-07 03:34 METAR KOFP 070734Z AUTO 00000KT 1 3/4SM BR FEW002 FEW060 22/22 A3006 RMK AO2
                 T02170217 =
2015-07-07 03:20 METAR KOFP 070720Z AUTO 00000KT 4SM BR FEW060 22/22 A3006 RMK AO2 T02220217 =
2015-07-07 03:13 METAR KOFP 070713Z AUTO 00000KT 2 1/2SM BR FEW060 22/22 A3006 RMK AO2 T02170217
                 =
2015-07-07 02:54 METAR KOFP 070654Z AUTO 00000KT 5SM BR CLR 22/22 A3006 RMK AO2 SLP176 T02220222
                 =
2015-07-07 02:26 METAR KOFP 070626Z AUTO 00000KT 3SM BR FEW004 22/22 A3006 RMK AO2 T02220217 =
2015-07-07 02:23 METAR KOFP 070623Z AUTO 00000KT 1 1/2SM BR FEW004 22/22 A3006 RMK AO2 T02220217
                 =
2015-07-07 02:21 METAR KOFP 070621Z AUTO 00000KT 1SM BR VV004 22/22 A3006 RMK AO2 T02220217 =
2015-07-07 02:08 METAR KOFP 070608Z AUTO 00000KT 1 1/4SM BR FEW006 22/21 A3006 RMK AO2 T02170211
                 =
2015-07-07 01:54 METAR KOFP 070554Z AUTO 00000KT 1 1/4SM BR CLR 21/21 A3006 RMK AO2 SLP177
                 T02110211 10239 20211 55002 =
2015-07-07 01:46 METAR KOFP 070546Z AUTO 00000KT 1SM BR CLR 21/21 A3006 RMK AO2 T02110211 =
2015-07-07 01:43 METAR KOFP 070543Z AUTO 00000KT 1SM BR VV004 21/21 A3006 RMK AO2 T02110211 =
2015-07-07 01:41 METAR KOFP 070541Z AUTO 00000KT 1 1/2SM BR FEW004 21/21 A3006 RMK AO2 T02110211
                 =
2015-07-07 01:33 METAR KOFP 070533Z AUTO 00000KT 1 1/4SM BR FEW004 21/21 A3006 RMK AO2 T02110211
                 =
2015-07-07 01:21 METAR KOFP 070521Z AUTO 00000KT 1/2SM FG VV004 21/21 A3006 RMK AO2 T02110211 =
2015-07-07 01:14 METAR KOFP 070514Z AUTO 00000KT 1SM BR VV004 21/21 A3006 RMK AO2 T02110211 =
2015-07-07 01:11 METAR KOFP 070511Z AUTO 00000KT 1 3/4SM BR CLR 21/21 A3006 RMK AO2 T02110211 =
2015-07-07 01:08 METAR KOFP 070508Z AUTO 00000KT 3SM BR CLR 22/21 A3006 RMK AO2 T02170211 =
2015-07-07 00:59 METAR KOFP 070459Z AUTO 00000KT 1 3/4SM BR CLR 21/21 A3006 RMK AO2 T02110206 =
2015-07-07 00:54 METAR KOFP 070454Z AUTO 00000KT 4SM BR CLR 21/21 A3006 RMK AO2 SLP176 T02110211
                 403060211 =
2015-07-07 00:25 METAR KOFP 070425Z AUTO 11003KT 4SM BR FEW050 21/21 A3006 RMK AO2 T02110211 =
2015-07-07 00:22 METAR KOFP 070422Z AUTO 10004KT 1 1/2SM BR FEW050 22/22 A3006 RMK AO2 T02170217
                 =
2015-07-07 00:18 METAR KOFP 070418Z AUTO 31005KT 3/4SM BR CLR 21/21 A3006 RMK AO2 T02110211 =
2015-07-07 00:11 METAR KOFP 070411Z AUTO 00000KT 1SM BR VV003 21/21 A3006 RMK AO2 T02110211 =
2015-07-06 23:54 METAR KOFP 070354Z AUTO 00000KT 1 3/4SM BR CLR 21/21 A3006 RMK AO2 VIS 1V4
                 SLP177 T02110211 =
2015-07-06 23:43 METAR KOFP 070343Z AUTO 00000KT 1 3/4SM BR CLR 22/21 A3006 RMK AO2 T02170211 =
2015-07-06 23:38 METAR KOFP 070338Z AUTO 00000KT 4SM BR CLR 22/22 A3006 RMK AO2 T02170217 =
2015-07-06 23:30 METAR KOFP 070330Z AUTO 00000KT 2SM BR CLR 22/22 A3006 RMK AO2 T02170217 =
2015-07-06 23:22 METAR KOFP 070322Z AUTO 00000KT 1SM BR CLR 21/21 A3006 RMK AO2 T02110211 =
2015-07-06 23:13 METAR KOFP 070313Z AUTO 00000KT 1 3/4SM BR CLR 21/21 A3006 RMK AO2 VIS 3/4V5
                 T02110211 =
2015-07-06 23:03 METAR KOFP 070303Z AUTO 00000KT 5SM BR CLR 22/21 A3006 RMK AO2 T02170211 =
2015-07-06 22:54 METAR KOFP 070254Z AUTO 00000KT 2SM BR FEW002 21/21 A3007 RMK AO2 VIS 1 1/2V4
                 SLP180 T02110211 53006 =
2015-07-06 22:42 METAR KOFP 070242Z AUTO 00000KT 1 1/4SM BR FEW002 21/21 A3007 RMK AO2 T02110211
                 =
2015-07-06 21:59 METAR KOFP 070159Z AUTO 00000KT 3/4SM BR VV002 22/22 A3006 RMK AO2 T02170217 =
2015-07-06 21:54 METAR KOFP 070154Z AUTO 00000KT 1 1/4SM BR FEW002 22/22 A3006 RMK AO2 SLP178
                 T02220217 =
2015-07-06 21:51 METAR KOFP 070151Z AUTO 00000KT 1 1/4SM BR FEW002 22/22 A3006 RMK AO2 =
2015-07-06 21:20 METAR KOFP 070120Z AUTO 00000KT 3/4SM BR VV002 22/22 A3005 RMK AO2 T02220222 =
2015-07-06 21:13 METAR KOFP 070113Z AUTO 00000KT 1SM BR CLR 22/22 A3005 RMK AO2 T02220222 =
2015-07-06 21:03 METAR KOFP 070103Z AUTO 00000KT 1 3/4SM BR FEW090 22/22 A3005 RMK AO2 VIS 3/4V5
                 T02220222 =

Support USWX by starting your Amazon purchase here.